Adin, California
Current Conditions -  °F | °C
As of 8:55 PM on Thursday 30 Oct 2014 (Local Time) from KAAT Reporting Station
Broken Clouds Broken Clouds  
Wind Chill: 55°   Ceiling: 12000
Heat Index: 55°   Visibility: 10mi
Dew Point: 35°   Wind: 7mph
Humidity: 47%   Direction: 160°SSE
Pressure: 29.92"   Gusts: NA
Location:  41.19°N, 120.95°W
Report Text: KAAT 310355Z AUTO 16006KT 10SM BKN120 13/02 A2992 RMK AO2 SLP118 T01280017 $
Loading
Personal Weather Stations






























Interactive Weather Map
Tropical Storm Tracking
New forecast layout! Learn more

10-Day Weather Forecast

Advertisements
Track Severe Weather on mobile